»·PEaware :: RCH1776 KSBA-KPSP

RCH1776 :: KSBA-KPSP

FLIGHT INFORMATION

Flight Status: Arrived
Operator:
US Air Force AMC
More flights by this operator :: More flights under this callsign
Pilot: Walter H. (552)
Aircraft: DEHAVILLAND DASH 8 400
(DH8D)
More flights by this aircraft type
Origin: KSBA Santa Barbara Mun
United States
Destination: KPSP Palm Springs Intl
United States
More flights between these airports :: More routes between these airports
Route: +HENER FIM V386 PMD V137 PSP
File this flight plan on PilotEdge
Remarks: Mutli Crew
Altitude:
(Current/Filed)
17,000ft
Speed:
(Current/Filed)
320kts
Departed: 13-Dec-16 09:51 PM
Arrived: 13-Dec-16 11:30 PM
Distance/Time
Traveled:
169nm/1:38
Distance/Time
To Go:
Arrived

Flight Plot

Page will automatically refresh every two minutes.

Flight plan parsing failed; only flown route is shown


Map Options




Map Legend


Flown Route
Filed Route
Departure Airport
Arrival Airport
Navaid (VOR, NDB)
Fix

Horizontal Profiles

Position Reports

Time Latitude Longitude Heading Altitude Ground
Speed
13-Dec-16 21:19 34.426029 -119.836647 188 17ft 0kts
13-Dec-16 21:20 34.426029 -119.836647 188 17ft 0kts
13-Dec-16 21:21 34.426029 -119.836647 188 17ft 0kts
13-Dec-16 21:22 34.426029 -119.836647 188 17ft 0kts
13-Dec-16 21:23 34.426029 -119.836647 188 17ft 0kts
13-Dec-16 21:24 34.426029 -119.836647 188 17ft 0kts
13-Dec-16 21:25 34.426029 -119.836647 188 17ft 0kts
13-Dec-16 21:26 34.426029 -119.836647 188 17ft 0kts
13-Dec-16 21:27 34.426029 -119.836647 188 17ft 0kts
13-Dec-16 21:28 34.426029 -119.836647 188 17ft 0kts
13-Dec-16 21:29 34.426029 -119.836647 188 17ft 0kts
13-Dec-16 21:30 34.426029 -119.836647 188 17ft 0kts
13-Dec-16 21:31 34.426029 -119.836647 188 17ft 0kts
13-Dec-16 21:32 34.426029 -119.836647 188 18ft 0kts
13-Dec-16 21:33 34.426029 -119.836647 188 17ft 0kts
13-Dec-16 21:34 34.426029 -119.836647 188 17ft 0kts
13-Dec-16 21:35 34.426029 -119.836647 188 17ft 0kts
13-Dec-16 21:36 34.426029 -119.836647 188 17ft 0kts
13-Dec-16 21:37 34.426029 -119.836647 188 17ft 0kts
13-Dec-16 21:38 34.426588 -119.836538 189 17ft 0kts
13-Dec-16 21:39 34.426619 -119.836531 189 17ft 0kts
13-Dec-16 21:40 34.426769 -119.836587 82 17ft 10kts
13-Dec-16 21:41 34.426966 -119.835368 42 17ft 0kts
13-Dec-16 21:42 34.426966 -119.835368 42 17ft 0kts
13-Dec-16 21:43 34.427754 -119.841656 268 18ft 108kts
13-Dec-16 21:44 34.426971 -119.893750 269 2196ft 184kts
13-Dec-16 21:45 34.420385 -119.966845 235 3642ft 255kts
13-Dec-16 21:46 34.358781 -119.968466 126 6070ft 260kts
13-Dec-16 21:47 34.349014 -119.882926 92 7291ft 261kts
13-Dec-16 21:48 34.345741 -119.795549 97 7338ft 253kts
13-Dec-16 21:49 34.335293 -119.712238 100 7802ft 255kts
13-Dec-16 21:50 34.319281 -119.624418 108 7912ft 277kts
13-Dec-16 21:51 34.313974 -119.533504 81 7970ft 285kts
13-Dec-16 21:52 34.322598 -119.456709 71 8036ft 262kts
13-Dec-16 21:53 34.385720 -119.457958 294 6597ft 261kts
13-Dec-16 21:54 34.401808 -119.538742 278 4586ft 247kts
13-Dec-16 21:55 34.408773 -119.620928 272 4209ft 240kts
13-Dec-16 21:56 34.409753 -119.685118 272 3620ft 231kts
13-Dec-16 21:57 34.416855 -119.756093 272 2745ft 199kts
13-Dec-16 21:58 34.409058 -119.831793 246 2949ft 186kts
13-Dec-16 21:59 34.390278 -119.878469 242 3039ft 185kts
13-Dec-16 22:00 34.368506 -119.934467 246 2958ft 188kts
13-Dec-16 22:01 34.351423 -119.993936 267 2889ft 186kts
13-Dec-16 22:02 34.384514 -120.031023 354 2505ft 182kts
13-Dec-16 22:03 34.435235 -120.021617 29 1814ft 177kts
13-Dec-16 22:04 34.439210 -119.969952 103 1602ft 162kts
13-Dec-16 22:05 34.427449 -119.916545 95 1154ft 149kts
13-Dec-16 22:06 34.427130 -119.869886 88 301ft 131kts
13-Dec-16 22:07 34.427801 -119.841066 89 17ft 33kts
13-Dec-16 22:08 34.426727 -119.837151 90 17ft 9kts
13-Dec-16 22:09 34.426046 -119.836644 190 17ft 0kts
13-Dec-16 22:10 34.426028 -119.836647 188 17ft 0kts
13-Dec-16 22:11 34.426028 -119.836647 188 17ft 0kts
13-Dec-16 22:12 34.426028 -119.836647 188 17ft 0kts
13-Dec-16 22:13 34.426028 -119.836647 188 17ft 0kts
13-Dec-16 22:14 34.426028 -119.836647 188 17ft 0kts
13-Dec-16 22:15 34.426028 -119.836647 188 17ft 0kts
13-Dec-16 22:16 34.426028 -119.836647 188 17ft 0kts
13-Dec-16 22:17 34.426028 -119.836647 188 17ft 0kts
13-Dec-16 22:18 34.426028 -119.836647 188 17ft 0kts
13-Dec-16 22:19 34.426028 -119.836647 188 17ft 0kts
13-Dec-16 22:20 34.426028 -119.836647 188 17ft 0kts
13-Dec-16 22:21 34.426028 -119.836647 188 17ft 0kts
13-Dec-16 22:22 34.426028 -119.836647 188 17ft 0kts
13-Dec-16 22:23 34.426028 -119.836647 188 17ft 0kts
13-Dec-16 22:24 34.426028 -119.836647 188 17ft 0kts
13-Dec-16 22:25 34.426029 -119.836647 188 17ft 0kts
13-Dec-16 22:26 34.426029 -119.836647 188 17ft 0kts
13-Dec-16 22:27 34.426029 -119.836647 188 17ft 0kts
13-Dec-16 22:28 34.426393 -119.836575 189 17ft 3kts
13-Dec-16 22:29 34.426710 -119.836003 78 17ft 10kts
13-Dec-16 22:30 34.426918 -119.835383 48 17ft 0kts
13-Dec-16 22:31 34.426906 -119.835398 48 17ft 0kts
13-Dec-16 22:32 34.426906 -119.835398 48 17ft 0kts
13-Dec-16 22:33 34.427044 -119.835253 35 17ft 9kts
13-Dec-16 22:34 34.426688 -119.859662 251 585ft 155kts
13-Dec-16 22:35 34.401765 -119.917764 233 2582ft 225kts
13-Dec-16 22:36 34.345330 -119.910443 120 4735ft 254kts
13-Dec-16 22:37 34.339075 -119.825691 91 6647ft 266kts
13-Dec-16 22:38 34.338096 -119.733923 91 7934ft 280kts
13-Dec-16 22:39 34.337018 -119.639490 91 9283ft 284kts
13-Dec-16 22:40 34.335663 -119.541444 90 10425ft 299kts
13-Dec-16 22:41 34.334127 -119.441058 91 11562ft 313kts
13-Dec-16 22:42 34.332496 -119.333494 91 12656ft 324kts
13-Dec-16 22:43 34.331213 -119.222969 88 13715ft 331kts
13-Dec-16 22:44 34.339497 -119.110705 82 14650ft 337kts
13-Dec-16 22:45 34.348417 -118.996662 84 15503ft 342kts
13-Dec-16 22:46 34.357422 -118.881239 77 16238ft 347kts
13-Dec-16 22:47 34.392853 -118.774386 62 16868ft 349kts
13-Dec-16 22:48 34.430295 -118.665347 65 17006ft 364kts
13-Dec-16 22:49 34.467820 -118.552885 64 17009ft 373kts
13-Dec-16 22:50 34.506925 -118.437021 64 17007ft 377kts
13-Dec-16 22:51 34.544463 -118.324933 64 17003ft 379kts
13-Dec-16 22:52 34.576721 -118.228321 64 16998ft 380kts
13-Dec-16 22:53 34.620636 -118.094227 70 16993ft 381kts
13-Dec-16 22:54 34.596606 -117.975852 122 16999ft 378kts
13-Dec-16 22:55 34.554222 -117.884369 121 16995ft 382kts
13-Dec-16 22:56 34.504206 -117.776075 121 16999ft 383kts
13-Dec-16 22:57 34.454054 -117.667848 122 17001ft 384kts
13-Dec-16 22:58 34.402768 -117.557427 122 17004ft 384kts
13-Dec-16 22:59 34.352299 -117.449097 121 17003ft 383kts
13-Dec-16 23:00 34.301012 -117.339294 121 17004ft 383kts
13-Dec-16 23:01 34.249582 -117.229758 121 17016ft 382kts
13-Dec-16 23:02 34.197588 -117.119173 121 17028ft 382kts
13-Dec-16 23:03 34.145007 -117.007649 122 17051ft 382kts
13-Dec-16 23:04 34.092506 -116.896659 121 17072ft 381kts
13-Dec-16 23:05 34.038897 -116.784074 122 15292ft 383kts
13-Dec-16 23:06 33.990596 -116.671214 125 13509ft 372kts
13-Dec-16 23:07 33.939795 -116.571199 122 11526ft 334kts
13-Dec-16 23:08 33.896395 -116.483284 121 10993ft 282kts
13-Dec-16 23:09 33.858735 -116.405471 119 10257ft 274kts
13-Dec-16 23:10 33.826720 -116.328748 117 8349ft 241kts
13-Dec-16 23:11 33.798050 -116.260331 118 6740ft 219kts
13-Dec-16 23:12 33.760816 -116.208425 151 6106ft 195kts
13-Dec-16 23:13 33.709382 -116.198084 190 5973ft 199kts
13-Dec-16 23:14 33.662399 -116.231367 230 5576ft 211kts
13-Dec-16 23:15 33.645052 -116.296788 272 4904ft 205kts
13-Dec-16 23:16 33.667623 -116.357145 313 4116ft 201kts
13-Dec-16 23:17 33.707963 -116.395858 322 3258ft 176kts
13-Dec-16 23:18 33.744633 -116.429266 322 2495ft 151kts
13-Dec-16 23:19 33.775112 -116.457428 322 1671ft 135kts
13-Dec-16 23:20 33.803742 -116.484076 322 918ft 131kts
13-Dec-16 23:21 33.829357 -116.507338 323 484ft 53kts
13-Dec-16 23:22 33.832684 -116.512442 151 484ft 13kts
13-Dec-16 23:23 33.828715 -116.508857 143 484ft 21kts
13-Dec-16 23:24 33.824898 -116.507175 183 484ft 14kts
13-Dec-16 23:25 33.823979 -116.507257 182 484ft 0kts
13-Dec-16 23:26 33.823979 -116.507257 182 484ft 0kts

Navigation Log

Ident Type
Flight plan parsing failed, navigation log unavailable